Latest Weather Observations for Robe Airport

IDS60801

Issued at 4:11 pm CDT Wednesday 19 December 2018 (issued every 10 minutes, with the page automatically refreshed every 10 minutes)

About weather observations | Map of weather stations | Latest weather observations for SA | Other Formats
Station Details ID: 026105 Name: ROBE AIRFIELD Lat: -37.18 Lon: 139.81 Height: 3.0 m
Data from the previous 72 hours. | See also: Recent months at Robe Airport
Date/Time
CDT
Temp
°C
App
Temp
°C
Dew
Point
°C
Rel
Hum
%
Delta-T
°C
Wind Press
QNH
hPa
Press
MSL
hPa
Rain since
9am
mm
Dir  Spd
km/h
Gust
km/h
Spd
kts
Gust
kts
19/04:00pm 20.6 20.5 18.7 89 1.2 SSW 17 22 9 12 1009.5 1009.5 -
19/03:30pm 20.7 20.4 19.2 91 0.9 SSW 19 28 10 15 1009.7 1009.7 -
19/03:00pm 19.7 20.1 18.9 95 0.5 SSW 15 20 8 11 1009.5 1009.5 -
19/02:30pm 22.9 25.2 21.4 91 1.0 WNW 11 15 6 8 1009.3 1009.3 -
19/02:00pm 23.0 26.3 21.8 93 0.8 N 7 15 4 8 1009.3 1009.3 -
19/01:30pm 20.6 23.5 20.6 100 0.0 N 6 13 3 7 1009.5 1009.5 -
19/01:00pm 19.6 21.0 19.6 100 0.0 NNE 11 19 6 10 1009.4 1009.4 -
19/12:30pm 19.1 19.2 19.1 100 0.0 NNE 17 20 9 11 1010.1 1010.1 -
19/12:00pm 18.6 18.4 18.6 100 0.0 NE 17 22 9 12 1010.1 1010.1 -
19/11:30am 18.2 19.0 18.2 100 0.0 NNE 11 13 6 7 1010.8 1010.8 -
19/11:00am 17.9 19.3 17.9 100 0.0 N 7 13 4 7 1011.9 1011.9 -
19/10:30am 17.3 18.5 17.3 100 0.0 NNE 7 13 4 7 1011.2 1011.2 -
19/10:00am 17.1 17.8 17.1 100 0.0 NW 9 13 5 7 1012.9 1012.9 -
19/09:30am 16.4 16.5 16.4 100 0.0 N 11 15 6 8 1012.7 1012.7 -
19/07:30am 15.5 16.0 15.5 100 0.0 WSW 7 11 4 6 1011.5 1011.5 1.0
19/07:00am 15.7 16.2 15.5 99 0.1 WNW 7 11 4 6 1013.2 1013.2 0.2
19/06:30am 15.6 16.2 15.3 98 0.2 SE 6 7 3 4 1012.1 1012.1 0.0
19/06:00am 15.7 14.9 15.2 97 0.3 S 13 17 7 9 1012.1 1012.1 0.0
19/05:30am 15.7 16.1 15.2 97 0.3 SSE 7 13 4 7 1011.6 1011.6 0.0
19/05:00am 15.6 15.1 15.0 96 0.3 E 11 15 6 8 1009.9 1009.9 0.0
19/04:30am 16.0 16.1 15.4 96 0.3 S 9 13 5 7 1010.8 1010.8 0.0
19/04:00am 15.9 16.2 15.1 95 0.5 ESE 7 11 4 6 1010.6 1010.6 0.0
19/03:30am 15.9 16.2 15.1 95 0.5 SSE 7 13 4 7 1010.7 1010.7 0.0
19/03:00am 16.1 15.7 15.3 95 0.5 ESE 11 17 6 9 1010.8 1010.8 0.0
19/02:30am 16.0 15.9 15.0 94 0.6 SSE 9 13 5 7 1011.1 1011.1 0.0
19/02:00am 16.5 16.2 15.5 94 0.6 E 11 17 6 9 1010.7 1010.7 0.0
19/01:30am 16.7 15.4 15.9 95 0.5 ESE 17 22 9 12 1011.0 1011.0 0.0
19/01:00am 17.0 17.3 16.0 94 0.6 ESE 9 13 5 7 1012.5 1012.5 0.0
19/12:30am 17.3 18.1 16.3 94 0.6 SE 7 11 4 6 1013.2 1013.2 0.0
19/12:00am 17.5 17.7 16.7 95 0.5 ESE 11 15 6 8 1013.1 1013.1 0.0
 
Date/Time
CDT
Temp
°C
App
Temp
°C
Dew
Point
°C
Rel
Hum
%
Delta-T
°C
Wind Press
QNH
hPa
Press
MSL
hPa
Rain since
9am
mm
Dir  Spd
km/h
Gust
km/h
Spd
kts
Gust
kts
18/11:30pm 17.8 18.6 17.3 97 0.3 SSE 9 15 5 8 1013.8 1013.8 0.0
18/11:00pm 17.7 19.0 17.2 97 0.3 SSW 6 7 3 4 1014.4 1014.4 0.0
18/10:30pm 17.9 20.4 17.3 96 0.4 CALM 0 0 0 0 1014.3 1014.3 0.0
18/10:00pm 17.9 19.2 17.1 95 0.5 SSE 6 7 3 4 1014.0 1014.0 0.0
18/09:30pm 18.0 19.1 17.0 94 0.6 SSE 7 11 4 6 1013.8 1013.8 0.0
18/09:00pm 17.5 18.8 16.2 92 0.8 S 4 6 2 3 1013.8 1013.8 0.0
18/08:30pm 17.9 19.9 16.1 89 1.1 CALM 0 0 0 0 1014.4 1014.4 0.0
18/08:00pm 18.1 19.8 16.1 88 1.2 SSW 2 4 1 2 1014.4 1014.4 0.0
18/07:30pm 19.2 21.4 16.4 84 1.7 CALM 0 0 0 0 1014.2 1014.2 0.0
18/07:00pm 19.5 20.4 16.7 84 1.7 SSE 7 9 4 5 1014.2 1014.2 0.0
18/06:30pm 19.7 20.6 16.5 82 1.9 SSW 7 9 4 5 1013.8 1013.8 0.0
18/06:00pm 19.6 20.6 16.4 82 1.9 S 6 9 3 5 1013.6 1013.6 0.0
18/05:30pm 19.4 20.7 16.2 82 1.9 S 4 6 2 3 1013.7 1013.7 0.0
18/05:00pm 19.6 19.9 16.1 80 2.1 SSW 9 13 5 7 1014.4 1014.4 0.0
18/04:30pm 21.1 22.8 16.1 73 3.0 SSE 2 4 1 2 1014.7 1014.7 0.0
18/04:00pm 20.4 20.9 15.6 74 2.9 SSE 7 11 4 6 1014.2 1014.2 0.0
18/03:30pm 19.9 18.8 15.3 75 2.7 SE 15 20 8 11 1013.5 1013.5 0.0
18/03:00pm 20.1 19.9 15.7 76 2.6 ESE 11 15 6 8 1014.0 1014.0 0.0
18/02:30pm 19.6 20.3 15.5 77 2.4 ENE 6 9 3 5 1014.5 1014.5 0.0
18/02:00pm 19.2 19.1 14.9 76 2.5 E 9 15 5 8 1014.7 1014.7 0.0
18/01:30pm 18.8 18.7 14.9 78 2.3 E 9 17 5 9 1014.8 1014.8 0.0
18/01:00pm 18.3 18.1 14.8 80 2.0 ESE 9 13 5 7 1015.4 1015.4 0.0
18/12:30pm 18.0 17.7 14.5 80 2.0 ESE 9 11 5 6 1015.6 1015.6 0.0
18/12:00pm 17.9 17.3 14.6 81 1.9 ESE 11 17 6 9 1015.8 1015.8 0.0
18/11:30am 17.5 15.7 14.4 82 1.8 ESE 17 24 9 13 1014.8 1014.8 0.0
18/11:00am 17.2 15.8 14.5 84 1.6 ESE 15 26 8 14 1015.2 1015.2 0.0
18/10:30am 16.6 14.7 14.1 85 1.4 ESE 17 24 9 13 1015.6 1015.6 0.0
18/10:00am 16.6 14.7 14.1 85 1.4 ESE 17 20 9 11 1015.9 1015.9 0.0
18/09:30am 16.1 14.5 13.8 86 1.3 SE 15 20 8 11 1016.3 1016.3 0.0
18/09:00am 15.7 13.6 13.7 88 1.1 ESE 17 20 9 11 1016.4 1016.4 0.0
18/08:30am 15.2 13.5 13.6 90 0.9 SE 15 22 8 12 1016.4 1016.4 0.0
18/08:00am 14.8 12.7 13.7 93 0.6 SE 17 26 9 14 1016.1 1016.1 0.0
18/07:30am 14.2 11.6 13.2 94 0.6 ESE 19 24 10 13 1016.0 1016.0 0.0
18/07:00am 14.0 12.2 13.2 95 0.4 SE 15 20 8 11 1016.3 1016.3 0.0
18/06:30am 13.9 12.5 13.3 96 0.3 SE 13 20 7 11 1016.3 1016.3 0.0
18/06:00am 13.6 10.9 13.0 96 0.3 SE 19 26 10 14 1015.6 1015.6 0.0
18/05:30am 13.7 11.1 13.1 96 0.3 SE 19 24 10 13 1015.0 1015.0 0.0
18/05:00am 13.7 11.8 13.1 96 0.3 SE 15 22 8 12 1014.8 1014.8 0.0
18/04:30am 13.9 12.1 13.4 97 0.3 SE 15 20 8 11 1014.5 1014.5 0.0
18/04:00am 13.7 10.9 13.1 96 0.3 SE 20 30 11 16 1014.2 1014.2 0.0
18/03:30am 13.9 10.7 13.1 95 0.4 SE 22 33 12 18 1014.0 1014.0 0.0
18/03:00am 14.5 12.4 13.7 95 0.4 ESE 17 24 9 13 1013.9 1013.9 0.0
18/02:30am 14.6 12.0 13.8 95 0.4 SE 20 30 11 16 1014.1 1014.1 0.0
18/02:00am 14.8 13.3 14.2 96 0.3 ESE 15 24 8 13 1014.1 1014.1 0.0
18/01:30am 14.8 13.3 14.2 96 0.3 ESE 15 20 8 11 1014.4 1014.4 0.0
18/01:00am 15.0 13.1 14.2 95 0.5 SE 17 24 9 13 1014.7 1014.7 0.0
18/12:30am 15.0 13.1 14.2 95 0.5 ESE 17 24 9 13 1014.8 1014.8 0.0
18/12:00am 15.0 13.0 14.0 94 0.6 SE 17 24 9 13 1015.2 1015.2 0.0
 
Date/Time
CDT
Temp
°C
App
Temp
°C
Dew
Point
°C
Rel
Hum
%
Delta-T
°C
Wind Press
QNH
hPa
Press
MSL
hPa
Rain since
9am
mm
Dir  Spd
km/h
Gust
km/h
Spd
kts
Gust
kts
17/11:30pm 15.2 12.4 14.4 95 0.5 ESE 22 30 12 16 1014.8 1014.8 0.0
17/11:00pm 15.1 12.9 14.3 95 0.5 SE 19 28 10 15 1014.4 1014.4 0.0
17/10:30pm 14.8 12.4 13.8 94 0.6 ESE 19 28 10 15 1014.4 1014.4 0.0
17/10:00pm 15.0 12.4 13.9 93 0.6 SE 20 30 11 16 1014.1 1014.1 0.0
17/09:30pm 15.3 11.6 14.0 92 0.7 SE 26 37 14 20 1013.8 1013.8 0.0
17/09:00pm 15.5 13.0 14.2 92 0.7 SE 20 32 11 17 1014.2 1014.2 0.0
17/08:30pm 16.0 13.6 14.5 91 0.9 SE 20 33 11 18 1014.7 1014.7 0.0
17/08:00pm 16.3 13.6 14.7 90 0.9 SE 22 32 12 17 1015.1 1015.1 0.0
17/07:30pm 16.6 14.4 14.8 89 1.0 SSE 20 32 11 17 1014.8 1014.8 0.0
17/07:00pm 16.8 13.3 14.6 87 1.3 SSE 26 39 14 21 1014.5 1014.5 0.0
17/06:30pm 17.3 14.0 14.9 86 1.4 S 26 35 14 19 1014.2 1014.2 0.0
17/06:00pm 17.7 15.1 15.0 84 1.6 SSE 22 32 12 17 1013.8 1013.8 0.0
17/05:30pm 17.7 14.0 15.0 84 1.6 SSE 28 35 15 19 1013.9 1013.9 0.0
17/05:00pm 17.7 14.2 14.6 82 1.8 SSE 26 33 14 18 1014.5 1014.5 0.0
17/04:30pm 18.7 15.2 15.6 82 1.8 SSE 28 35 15 19 1014.3 1014.3 0.0
17/04:00pm 19.1 16.2 16.1 83 1.8 S 26 32 14 17 1014.7 1014.7 0.0
17/03:30pm 19.5 17.1 16.3 82 1.9 S 24 35 13 19 1014.7 1014.7 0.0
17/03:00pm 19.2 17.4 15.9 81 2.0 SSE 20 28 11 15 1014.7 1014.7 0.0
17/02:30pm 20.0 17.6 16.4 80 2.2 S 24 35 13 19 1014.9 1014.9 0.0
17/02:00pm 19.8 17.0 16.4 81 2.0 S 26 35 14 19 1015.1 1015.1 0.0
17/01:30pm 19.4 16.5 16.2 82 1.9 S 26 33 14 18 1014.8 1014.8 0.0
17/01:00pm 20.1 18.5 16.1 78 2.4 SSE 19 30 10 16 1014.5 1014.5 0.0
17/12:30pm 20.3 18.8 16.3 78 2.4 SSE 19 26 10 14 1014.4 1014.4 0.0
17/12:00pm 19.1 17.3 15.6 80 2.1 SSE 19 28 10 15 1014.4 1014.4 0.0
17/11:30am 19.0 17.2 15.9 82 1.8 SE 20 28 11 15 1014.0 1014.0 0.0
17/11:00am 17.9 15.7 15.0 83 1.7 SE 20 32 11 17 1014.1 1014.1 0.0
17/10:30am 17.4 14.9 15.2 87 1.3 SE 22 32 12 17 1014.2 1014.2 0.0
17/10:00am 16.5 14.5 15.0 91 0.9 SSE 19 32 10 17 1014.1 1014.1 0.0
17/09:30am 16.3 14.2 14.8 91 0.9 SSE 19 30 10 16 1014.3 1014.3 0.0
17/09:00am 16.2 14.2 15.4 95 0.5 SSE 20 28 11 15 1014.3 1014.3 0.4
17/08:30am 16.0 13.8 16.0 100 0.0 SE 22 35 12 19 1013.8 1013.8 0.4
17/08:00am 15.1 13.0 15.1 100 0.0 SSE 20 32 11 17 1013.6 1013.6 0.4
17/07:30am 15.1 13.5 15.1 100 0.0 SSE 17 24 9 13 1013.2 1013.2 0.4
17/07:00am 14.4 12.6 14.4 100 0.0 SSE 17 26 9 14 1013.1 1013.1 0.4
17/06:30am 14.3 13.2 14.3 100 0.0 S 13 19 7 10 1012.7 1012.7 0.4
17/06:00am 14.2 13.1 14.2 100 0.0 SSE 13 20 7 11 1012.0 1012.0 0.4
17/05:30am 14.1 12.6 14.1 100 0.0 SSE 15 20 8 11 1011.9 1011.9 0.4
17/05:00am 14.3 12.8 14.3 100 0.0 SSE 15 20 8 11 1011.7 1011.7 0.4
17/04:30am 14.3 12.8 14.3 100 0.0 SSE 15 20 8 11 1011.5 1011.5 0.4
17/04:00am 14.5 13.5 14.5 100 0.0 SSE 13 19 7 10 1011.3 1011.3 0.4
17/03:30am 14.6 12.9 14.6 100 0.0 SSE 17 24 9 13 1011.3 1011.3 0.2
17/03:00am 14.7 13.0 14.7 100 0.0 S 17 24 9 13 1010.6 1010.6 0.2
17/02:30am 14.9 12.7 14.9 100 0.0 SSE 20 30 11 16 1010.5 1010.5 0.2
17/02:00am 15.3 14.2 15.3 100 0.0 SSE 15 22 8 12 1010.8 1010.8 0.2
17/01:30am 15.3 13.8 15.3 100 0.0 SSE 17 24 9 13 1011.0 1011.0 0.2
17/01:00am 15.4 13.9 15.4 100 0.0 SSE 17 24 9 13 1011.1 1011.1 0.2
17/12:30am 15.6 13.6 15.6 100 0.0 SSE 20 30 11 16 1011.2 1011.2 0.0
17/12:00am 15.8 13.5 15.8 100 0.0 SSE 22 32 12 17 1010.8 1010.8 0.0
 
Date/Time
CDT
Temp
°C
App
Temp
°C
Dew
Point
°C
Rel
Hum
%
Delta-T
°C
Wind Press
QNH
hPa
Press
MSL
hPa
Rain since
9am
mm
Dir  Spd
km/h
Gust
km/h
Spd
kts
Gust
kts
16/11:30pm 16.3 15.6 16.3 100 0.0 S 15 22 8 12 1010.7 1010.7 0.0
16/11:00pm 16.2 15.0 16.2 100 0.0 S 17 22 9 12 1010.6 1010.6 0.0
16/10:30pm 15.8 14.9 15.8 100 0.0 SSW 15 20 8 11 1010.4 1010.4 0.0
16/10:00pm 15.7 14.7 15.7 100 0.0 SW 15 19 8 10 1010.0 1010.0 0.0
16/09:30pm 15.7 15.1 15.7 100 0.0 SW 13 22 7 12 1009.6 1009.6 0.0
16/09:00pm 15.9 15.0 15.9 100 0.0 SW 15 24 8 13 1009.3 1009.3 0.0
16/08:30pm 16.0 14.8 16.0 100 0.0 SW 17 24 9 13 1009.0 1009.0 0.0
16/08:00pm 16.2 15.7 16.0 99 0.1 SW 13 24 7 13 1008.8 1008.8 0.0
16/07:30pm 16.4 15.2 16.1 98 0.2 SW 17 26 9 14 1008.4 1008.4 0.0
16/07:00pm 16.7 16.0 16.4 98 0.2 SW 15 24 8 13 1008.3 1008.3 0.0
16/06:30pm 16.6 15.0 16.1 97 0.3 SW 19 30 10 16 1007.9 1007.9 0.0
16/06:00pm 17.1 15.6 16.3 95 0.5 SW 19 26 10 14 1007.7 1007.7 0.0
16/05:30pm 18.0 17.1 16.9 93 0.7 SW 17 28 9 15 1007.3 1007.3 0.0
16/05:00pm 18.0 16.7 16.9 93 0.7 SW 19 26 10 14 1006.9 1006.9 0.0
16/04:30pm 18.8 17.6 17.1 90 1.0 SW 19 28 10 15 1007.0 1007.0 0.0

Other Formats:

Comma delimited format used in spreadsheet applications
http://www.bom.gov.au/fwo/IDS60801/IDS60801.95816.axf

JavaScript Object Notation format (JSON) in row-major order
http://www.bom.gov.au/fwo/IDS60801/IDS60801.95816.json